sensor_id;sensor_type;location;lat;lon;timestamp;temperature;humidity
33881;DHT22;20172;47.530;10.256;2022-08-30T00:02:23;16.20;99.90
33881;DHT22;20172;47.530;10.256;2022-08-30T00:04:48;16.30;99.90
33881;DHT22;20172;47.530;10.256;2022-08-30T00:07:14;16.50;99.90
33881;DHT22;20172;47.530;10.256;2022-08-30T00:09:40;16.60;99.90
33881;DHT22;20172;47.530;10.256;2022-08-30T00:12:05;16.50;99.90
33881;DHT22;20172;47.530;10.256;2022-08-30T00:14:31;16.20;99.90
33881;DHT22;20172;47.530;10.256;2022-08-30T00:16:56;16.10;99.90
33881;DHT22;20172;47.530;10.256;2022-08-30T00:19:22;16.20;99.90
33881;DHT22;20172;47.530;10.256;2022-08-30T00:21:48;16.10;99.90
33881;DHT22;20172;47.530;10.256;2022-08-30T00:24:14;16.00;99.90
33881;DHT22;20172;47.530;10.256;2022-08-30T00:26:39;16.00;99.90
33881;DHT22;20172;47.530;10.256;2022-08-30T00:29:05;16.10;99.90
33881;DHT22;20172;47.530;10.256;2022-08-30T00:31:30;16.10;99.90
33881;DHT22;20172;47.530;10.256;2022-08-30T00:33:56;16.20;99.90
33881;DHT22;20172;47.530;10.256;2022-08-30T00:36:21;16.20;99.90
33881;DHT22;20172;47.530;10.256;2022-08-30T00:38:47;16.10;99.90
33881;DHT22;20172;47.530;10.256;2022-08-30T00:41:12;15.70;99.90
33881;DHT22;20172;47.530;10.256;2022-08-30T00:43:38;16.00;99.90
33881;DHT22;20172;47.530;10.256;2022-08-30T00:46:04;16.10;99.90
33881;DHT22;20172;47.530;10.256;2022-08-30T00:48:32;16.20;99.90
33881;DHT22;20172;47.530;10.256;2022-08-30T00:51:04;16.00;99.90
33881;DHT22;20172;47.530;10.256;2022-08-30T00:53:31;15.90;99.90
33881;DHT22;20172;47.530;10.256;2022-08-30T00:55:58;15.90;99.90
33881;DHT22;20172;47.530;10.256;2022-08-30T00:58:30;16.00;99.90
33881;DHT22;20172;47.530;10.256;2022-08-30T01:00:56;15.80;99.90
33881;DHT22;20172;47.530;10.256;2022-08-30T01:03:22;15.90;99.90
33881;DHT22;20172;47.530;10.256;2022-08-30T01:05:48;15.60;99.90
33881;DHT22;20172;47.530;10.256;2022-08-30T01:08:16;15.50;99.90
33881;DHT22;20172;47.530;10.256;2022-08-30T01:10:41;15.60;99.90
33881;DHT22;20172;47.530;10.256;2022-08-30T01:13:08;15.50;99.90
33881;DHT22;20172;47.530;10.256;2022-08-30T01:15:34;15.60;99.90
33881;DHT22;20172;47.530;10.256;2022-08-30T01:18:00;15.70;99.90
33881;DHT22;20172;47.530;10.256;2022-08-30T01:20:28;15.90;99.90
33881;DHT22;20172;47.530;10.256;2022-08-30T01:23:00;15.70;99.90
33881;DHT22;20172;47.530;10.256;2022-08-30T01:25:27;15.50;99.90
33881;DHT22;20172;47.530;10.256;2022-08-30T01:27:56;15.00;99.90
33881;DHT22;20172;47.530;10.256;2022-08-30T01:30:22;14.90;99.90
33881;DHT22;20172;47.530;10.256;2022-08-30T01:32:49;15.00;99.90
33881;DHT22;20172;47.530;10.256;2022-08-30T01:35:16;15.20;99.90
33881;DHT22;20172;47.530;10.256;2022-08-30T01:37:42;15.40;99.90
33881;DHT22;20172;47.530;10.256;2022-08-30T01:40:09;15.40;99.90
33881;DHT22;20172;47.530;10.256;2022-08-30T01:42:37;15.40;99.90
33881;DHT22;20172;47.530;10.256;2022-08-30T01:45:03;15.50;99.90
33881;DHT22;20172;47.530;10.256;2022-08-30T01:47:29;15.30;99.90
33881;DHT22;20172;47.530;10.256;2022-08-30T01:49:55;15.30;99.90
33881;DHT22;20172;47.530;10.256;2022-08-30T01:52:20;15.30;99.90
33881;DHT22;20172;47.530;10.256;2022-08-30T01:54:46;15.20;99.90
33881;DHT22;20172;47.530;10.256;2022-08-30T01:57:13;15.00;99.90
33881;DHT22;20172;47.530;10.256;2022-08-30T01:59:39;15.00;99.90
33881;DHT22;20172;47.530;10.256;2022-08-30T02:02:06;14.80;99.90
33881;DHT22;20172;47.530;10.256;2022-08-30T02:04:32;14.80;99.90
33881;DHT22;20172;47.530;10.256;2022-08-30T02:07:00;14.70;99.90
33881;DHT22;20172;47.530;10.256;2022-08-30T02:09:25;14.60;99.90
33881;DHT22;20172;47.530;10.256;2022-08-30T02:11:52;14.40;99.90
33881;DHT22;20172;47.530;10.256;2022-08-30T02:14:17;14.50;99.90
33881;DHT22;20172;47.530;10.256;2022-08-30T02:16:43;14.60;99.90
33881;DHT22;20172;47.530;10.256;2022-08-30T02:19:08;14.50;99.90
33881;DHT22;20172;47.530;10.256;2022-08-30T02:21:34;14.50;99.90
33881;DHT22;20172;47.530;10.256;2022-08-30T02:23:59;14.50;99.90
33881;DHT22;20172;47.530;10.256;2022-08-30T02:26:25;14.50;99.90
33881;DHT22;20172;47.530;10.256;2022-08-30T02:28:51;14.60;99.90
33881;DHT22;20172;47.530;10.256;2022-08-30T02:31:18;14.90;99.90
33881;DHT22;20172;47.530;10.256;2022-08-30T02:33:43;15.00;99.90
33881;DHT22;20172;47.530;10.256;2022-08-30T02:36:09;15.20;99.90
33881;DHT22;20172;47.530;10.256;2022-08-30T02:38:34;14.90;99.90
33881;DHT22;20172;47.530;10.256;2022-08-30T02:41:00;14.70;99.90
33881;DHT22;20172;47.530;10.256;2022-08-30T02:43:26;14.70;99.90
33881;DHT22;20172;47.530;10.256;2022-08-30T02:45:52;14.60;99.90
33881;DHT22;20172;47.530;10.256;2022-08-30T02:48:18;14.70;99.90
33881;DHT22;20172;47.530;10.256;2022-08-30T02:50:44;14.70;99.90
33881;DHT22;20172;47.530;10.256;2022-08-30T02:53:10;14.80;99.90
33881;DHT22;20172;47.530;10.256;2022-08-30T02:55:36;14.80;99.90
33881;DHT22;20172;47.530;10.256;2022-08-30T02:58:02;14.80;99.90
33881;DHT22;20172;47.530;10.256;2022-08-30T03:00:27;15.00;99.90
33881;DHT22;20172;47.530;10.256;2022-08-30T03:02:53;15.10;99.90
33881;DHT22;20172;47.530;10.256;2022-08-30T03:05:18;15.10;99.90
33881;DHT22;20172;47.530;10.256;2022-08-30T03:07:44;15.20;99.90
33881;DHT22;20172;47.530;10.256;2022-08-30T03:10:11;15.00;99.90
33881;DHT22;20172;47.530;10.256;2022-08-30T03:12:37;15.10;99.90
33881;DHT22;20172;47.530;10.256;2022-08-30T03:15:06;15.00;99.90
33881;DHT22;20172;47.530;10.256;2022-08-30T03:17:32;14.70;99.90
33881;DHT22;20172;47.530;10.256;2022-08-30T03:19:58;14.40;99.90
33881;DHT22;20172;47.530;10.256;2022-08-30T03:22:26;14.10;99.90
33881;DHT22;20172;47.530;10.256;2022-08-30T03:24:52;14.00;99.90
33881;DHT22;20172;47.530;10.256;2022-08-30T03:27:18;13.80;99.90
33881;DHT22;20172;47.530;10.256;2022-08-30T03:29:43;13.80;99.90
33881;DHT22;20172;47.530;10.256;2022-08-30T03:32:09;13.80;99.90
33881;DHT22;20172;47.530;10.256;2022-08-30T03:34:34;13.70;99.90
33881;DHT22;20172;47.530;10.256;2022-08-30T03:37:00;13.80;99.90
33881;DHT22;20172;47.530;10.256;2022-08-30T03:39:26;13.80;99.90
33881;DHT22;20172;47.530;10.256;2022-08-30T03:41:52;14.00;99.90
33881;DHT22;20172;47.530;10.256;2022-08-30T03:44:20;14.10;99.90
33881;DHT22;20172;47.530;10.256;2022-08-30T03:46:46;14.30;99.90
33881;DHT22;20172;47.530;10.256;2022-08-30T03:49:11;14.50;99.90
33881;DHT22;20172;47.530;10.256;2022-08-30T03:51:37;14.50;99.90
33881;DHT22;20172;47.530;10.256;2022-08-30T03:54:02;14.60;99.90
33881;DHT22;20172;47.530;10.256;2022-08-30T03:56:28;14.60;99.90
33881;DHT22;20172;47.530;10.256;2022-08-30T03:58:54;14.40;99.90
33881;DHT22;20172;47.530;10.256;2022-08-30T04:01:19;14.30;99.90
33881;DHT22;20172;47.530;10.256;2022-08-30T04:03:45;14.00;99.90
33881;DHT22;20172;47.530;10.256;2022-08-30T04:06:10;14.10;99.90
33881;DHT22;20172;47.530;10.256;2022-08-30T04:08:36;14.20;99.90
33881;DHT22;20172;47.530;10.256;2022-08-30T04:11:03;13.70;99.90
33881;DHT22;20172;47.530;10.256;2022-08-30T04:13:29;13.50;99.90
33881;DHT22;20172;47.530;10.256;2022-08-30T04:15:54;13.40;99.90
33881;DHT22;20172;47.530;10.256;2022-08-30T04:18:20;13.40;99.90
33881;DHT22;20172;47.530;10.256;2022-08-30T04:20:46;13.60;99.90
33881;DHT22;20172;47.530;10.256;2022-08-30T04:23:11;13.80;99.90
33881;DHT22;20172;47.530;10.256;2022-08-30T04:25:37;13.70;99.90
33881;DHT22;20172;47.530;10.256;2022-08-30T04:28:04;13.90;99.90
33881;DHT22;20172;47.530;10.256;2022-08-30T04:30:30;14.10;99.90
33881;DHT22;20172;47.530;10.256;2022-08-30T04:32:55;14.20;99.90
33881;DHT22;20172;47.530;10.256;2022-08-30T04:35:21;14.20;99.90
33881;DHT22;20172;47.530;10.256;2022-08-30T04:37:47;14.20;99.90
33881;DHT22;20172;47.530;10.256;2022-08-30T04:40:13;14.00;99.90
33881;DHT22;20172;47.530;10.256;2022-08-30T04:42:38;14.10;99.90
33881;DHT22;20172;47.530;10.256;2022-08-30T04:45:06;14.20;99.90
33881;DHT22;20172;47.530;10.256;2022-08-30T04:47:32;14.10;99.90
33881;DHT22;20172;47.530;10.256;2022-08-30T04:49:57;14.20;99.90
33881;DHT22;20172;47.530;10.256;2022-08-30T04:52:23;13.80;99.90
33881;DHT22;20172;47.530;10.256;2022-08-30T04:54:53;13.70;99.90
33881;DHT22;20172;47.530;10.256;2022-08-30T04:57:18;13.70;99.90
33881;DHT22;20172;47.530;10.256;2022-08-30T04:59:44;13.60;99.90
33881;DHT22;20172;47.530;10.256;2022-08-30T05:02:09;13.60;99.90
33881;DHT22;20172;47.530;10.256;2022-08-30T05:04:35;13.50;99.90
33881;DHT22;20172;47.530;10.256;2022-08-30T05:07:01;13.60;99.90
33881;DHT22;20172;47.530;10.256;2022-08-30T05:09:26;13.60;99.90
33881;DHT22;20172;47.530;10.256;2022-08-30T05:11:52;13.60;99.90
33881;DHT22;20172;47.530;10.256;2022-08-30T05:14:18;13.90;99.90
33881;DHT22;20172;47.530;10.256;2022-08-30T05:16:43;14.00;99.90
33881;DHT22;20172;47.530;10.256;2022-08-30T05:19:10;14.30;99.90
33881;DHT22;20172;47.530;10.256;2022-08-30T05:21:36;14.60;99.90
33881;DHT22;20172;47.530;10.256;2022-08-30T05:24:04;14.60;99.90
33881;DHT22;20172;47.530;10.256;2022-08-30T05:26:31;14.70;99.90
33881;DHT22;20172;47.530;10.256;2022-08-30T05:28:57;14.60;99.90
33881;DHT22;20172;47.530;10.256;2022-08-30T05:31:30;14.60;99.90
33881;DHT22;20172;47.530;10.256;2022-08-30T05:33:56;14.60;99.90
33881;DHT22;20172;47.530;10.256;2022-08-30T05:36:22;14.60;99.90
33881;DHT22;20172;47.530;10.256;2022-08-30T05:38:48;15.00;99.90
33881;DHT22;20172;47.530;10.256;2022-08-30T05:41:14;15.20;99.90
33881;DHT22;20172;47.530;10.256;2022-08-30T05:43:42;15.40;99.90
33881;DHT22;20172;47.530;10.256;2022-08-30T05:46:09;15.60;99.90
33881;DHT22;20172;47.530;10.256;2022-08-30T05:48:35;15.60;99.90
33881;DHT22;20172;47.530;10.256;2022-08-30T05:51:02;15.70;99.90
33881;DHT22;20172;47.530;10.256;2022-08-30T05:53:27;15.60;99.90
33881;DHT22;20172;47.530;10.256;2022-08-30T05:55:53;15.60;99.90
33881;DHT22;20172;47.530;10.256;2022-08-30T05:58:18;15.80;99.90
33881;DHT22;20172;47.530;10.256;2022-08-30T06:00:43;16.20;99.90
33881;DHT22;20172;47.530;10.256;2022-08-30T06:03:09;16.40;99.90
33881;DHT22;20172;47.530;10.256;2022-08-30T06:05:37;16.50;99.90
33881;DHT22;20172;47.530;10.256;2022-08-30T06:08:03;16.30;99.90
33881;DHT22;20172;47.530;10.256;2022-08-30T06:10:28;16.10;99.90
33881;DHT22;20172;47.530;10.256;2022-08-30T06:12:54;16.00;99.90
33881;DHT22;20172;47.530;10.256;2022-08-30T06:15:19;16.10;99.90
33881;DHT22;20172;47.530;10.256;2022-08-30T06:17:46;16.40;99.90
33881;DHT22;20172;47.530;10.256;2022-08-30T06:20:11;16.50;99.90
33881;DHT22;20172;47.530;10.256;2022-08-30T06:22:40;16.50;99.90
33881;DHT22;20172;47.530;10.256;2022-08-30T06:25:05;16.70;99.90
33881;DHT22;20172;47.530;10.256;2022-08-30T06:27:31;17.00;99.90
33881;DHT22;20172;47.530;10.256;2022-08-30T06:29:57;17.30;99.90
33881;DHT22;20172;47.530;10.256;2022-08-30T06:32:22;17.30;99.90
33881;DHT22;20172;47.530;10.256;2022-08-30T06:34:48;17.70;99.90
33881;DHT22;20172;47.530;10.256;2022-08-30T06:37:13;17.90;99.90
33881;DHT22;20172;47.530;10.256;2022-08-30T06:39:39;18.20;99.90
33881;DHT22;20172;47.530;10.256;2022-08-30T06:42:04;18.40;99.90
33881;DHT22;20172;47.530;10.256;2022-08-30T06:44:30;18.70;99.90
33881;DHT22;20172;47.530;10.256;2022-08-30T06:46:55;18.80;99.90
33881;DHT22;20172;47.530;10.256;2022-08-30T06:49:21;19.00;99.90
33881;DHT22;20172;47.530;10.256;2022-08-30T06:51:46;19.20;99.90
33881;DHT22;20172;47.530;10.256;2022-08-30T06:54:12;19.20;99.90
33881;DHT22;20172;47.530;10.256;2022-08-30T06:56:38;19.30;99.90
33881;DHT22;20172;47.530;10.256;2022-08-30T06:59:04;19.10;99.90
33881;DHT22;20172;47.530;10.256;2022-08-30T07:01:29;19.10;99.90
33881;DHT22;20172;47.530;10.256;2022-08-30T07:03:55;19.10;99.90
33881;DHT22;20172;47.530;10.256;2022-08-30T07:06:21;19.00;99.90
33881;DHT22;20172;47.530;10.256;2022-08-30T07:08:47;19.20;99.90
33881;DHT22;20172;47.530;10.256;2022-08-30T07:11:23;19.30;99.90
33881;DHT22;20172;47.530;10.256;2022-08-30T07:13:49;19.40;99.90
33881;DHT22;20172;47.530;10.256;2022-08-30T07:16:14;19.60;99.90
33881;DHT22;20172;47.530;10.256;2022-08-30T07:18:40;19.70;99.90
33881;DHT22;20172;47.530;10.256;2022-08-30T07:21:15;19.50;99.90
33881;DHT22;20172;47.530;10.256;2022-08-30T07:23:42;19.60;99.90
33881;DHT22;20172;47.530;10.256;2022-08-30T07:26:09;19.80;99.90
33881;DHT22;20172;47.530;10.256;2022-08-30T07:28:38;20.00;99.90
33881;DHT22;20172;47.530;10.256;2022-08-30T07:31:05;20.20;99.90
33881;DHT22;20172;47.530;10.256;2022-08-30T07:33:31;20.40;99.90
33881;DHT22;20172;47.530;10.256;2022-08-30T07:35:56;20.70;99.90
33881;DHT22;20172;47.530;10.256;2022-08-30T07:38:24;20.80;99.90
33881;DHT22;20172;47.530;10.256;2022-08-30T07:40:49;20.90;99.90
33881;DHT22;20172;47.530;10.256;2022-08-30T07:43:15;21.00;99.90
33881;DHT22;20172;47.530;10.256;2022-08-30T07:45:40;21.30;99.90
33881;DHT22;20172;47.530;10.256;2022-08-30T07:48:06;21.30;99.90
33881;DHT22;20172;47.530;10.256;2022-08-30T07:50:31;21.50;99.90
33881;DHT22;20172;47.530;10.256;2022-08-30T07:52:57;21.60;99.90
33881;DHT22;20172;47.530;10.256;2022-08-30T07:55:22;21.70;99.90
33881;DHT22;20172;47.530;10.256;2022-08-30T07:57:48;21.80;99.90
33881;DHT22;20172;47.530;10.256;2022-08-30T08:00:14;21.80;99.90
33881;DHT22;20172;47.530;10.256;2022-08-30T08:02:39;21.90;99.90
33881;DHT22;20172;47.530;10.256;2022-08-30T08:05:06;22.00;99.90
33881;DHT22;20172;47.530;10.256;2022-08-30T08:07:32;22.10;99.90
33881;DHT22;20172;47.530;10.256;2022-08-30T08:09:58;22.20;99.90
33881;DHT22;20172;47.530;10.256;2022-08-30T08:12:24;22.30;99.90
33881;DHT22;20172;47.530;10.256;2022-08-30T08:14:49;22.20;99.90
33881;DHT22;20172;47.530;10.256;2022-08-30T08:17:15;22.30;99.90
33881;DHT22;20172;47.530;10.256;2022-08-30T08:19:40;22.40;99.90
33881;DHT22;20172;47.530;10.256;2022-08-30T08:22:06;22.40;99.90
33881;DHT22;20172;47.530;10.256;2022-08-30T08:24:31;22.50;99.90
33881;DHT22;20172;47.530;10.256;2022-08-30T08:26:57;22.50;99.90
33881;DHT22;20172;47.530;10.256;2022-08-30T08:29:22;22.60;99.90
33881;DHT22;20172;47.530;10.256;2022-08-30T08:31:48;22.70;99.90
33881;DHT22;20172;47.530;10.256;2022-08-30T08:34:14;22.90;99.90
33881;DHT22;20172;47.530;10.256;2022-08-30T08:36:39;23.00;99.90
33881;DHT22;20172;47.530;10.256;2022-08-30T08:39:06;23.10;99.90
33881;DHT22;20172;47.530;10.256;2022-08-30T08:44:06;23.40;99.90
33881;DHT22;20172;47.530;10.256;2022-08-30T08:46:50;23.60;99.90
33881;DHT22;20172;47.530;10.256;2022-08-30T08:49:21;23.80;99.90
33881;DHT22;20172;47.530;10.256;2022-08-30T08:51:47;23.90;99.90
33881;DHT22;20172;47.530;10.256;2022-08-30T08:57:15;24.20;99.90
33881;DHT22;20172;47.530;10.256;2022-08-30T08:59:41;24.50;99.90
33881;DHT22;20172;47.530;10.256;2022-08-30T09:02:18;24.60;99.90
33881;DHT22;20172;47.530;10.256;2022-08-30T09:04:46;24.70;99.90
33881;DHT22;20172;47.530;10.256;2022-08-30T09:07:22;24.90;99.90
33881;DHT22;20172;47.530;10.256;2022-08-30T09:09:48;25.00;99.90
33881;DHT22;20172;47.530;10.256;2022-08-30T09:12:14;25.10;99.90
33881;DHT22;20172;47.530;10.256;2022-08-30T09:14:43;25.20;99.90
33881;DHT22;20172;47.530;10.256;2022-08-30T09:17:12;25.40;99.90
33881;DHT22;20172;47.530;10.256;2022-08-30T09:24:48;25.70;99.90
33881;DHT22;20172;47.530;10.256;2022-08-30T09:27:18;25.80;99.90
33881;DHT22;20172;47.530;10.256;2022-08-30T09:29:54;25.80;99.90
33881;DHT22;20172;47.530;10.256;2022-08-30T09:32:24;25.80;99.90
33881;DHT22;20172;47.530;10.256;2022-08-30T09:34:50;25.80;99.90
33881;DHT22;20172;47.530;10.256;2022-08-30T09:37:23;25.90;99.90
33881;DHT22;20172;47.530;10.256;2022-08-30T09:39:49;25.80;99.90
33881;DHT22;20172;47.530;10.256;2022-08-30T09:42:19;25.80;99.90
33881;DHT22;20172;47.530;10.256;2022-08-30T09:44:45;25.90;99.90
33881;DHT22;20172;47.530;10.256;2022-08-30T09:55:25;26.10;99.90
33881;DHT22;20172;47.530;10.256;2022-08-30T09:58:08;26.20;99.90
33881;DHT22;20172;47.530;10.256;2022-08-30T10:00:39;26.40;99.90
33881;DHT22;20172;47.530;10.256;2022-08-30T10:03:12;26.50;99.90
33881;DHT22;20172;47.530;10.256;2022-08-30T10:11:01;26.80;99.90
33881;DHT22;20172;47.530;10.256;2022-08-30T10:21:27;27.70;99.90
33881;DHT22;20172;47.530;10.256;2022-08-30T10:23:57;28.00;99.90
33881;DHT22;20172;47.530;10.256;2022-08-30T10:26:39;28.10;99.90
33881;DHT22;20172;47.530;10.256;2022-08-30T10:29:09;28.20;99.90
33881;DHT22;20172;47.530;10.256;2022-08-30T10:31:51;28.20;99.90
33881;DHT22;20172;47.530;10.256;2022-08-30T10:34:28;28.30;99.90
33881;DHT22;20172;47.530;10.256;2022-08-30T10:37:00;28.60;99.90
33881;DHT22;20172;47.530;10.256;2022-08-30T10:39:28;28.80;99.90
33881;DHT22;20172;47.530;10.256;2022-08-30T10:41:59;29.00;99.90
33881;DHT22;20172;47.530;10.256;2022-08-30T10:44:27;29.30;99.90
33881;DHT22;20172;47.530;10.256;2022-08-30T10:49:31;29.50;99.90
33881;DHT22;20172;47.530;10.256;2022-08-30T10:54:35;29.90;99.80
33881;DHT22;20172;47.530;10.256;2022-08-30T10:57:04;30.00;99.90
33881;DHT22;20172;47.530;10.256;2022-08-30T10:59:29;30.30;99.70
33881;DHT22;20172;47.530;10.256;2022-08-30T11:05:06;30.90;99.50
33881;DHT22;20172;47.530;10.256;2022-08-30T11:12:30;31.60;95.10
33881;DHT22;20172;47.530;10.256;2022-08-30T11:14:57;31.60;94.30
33881;DHT22;20172;47.530;10.256;2022-08-30T11:17:28;31.50;93.20
33881;DHT22;20172;47.530;10.256;2022-08-30T11:19:56;31.40;92.30
33881;DHT22;20172;47.530;10.256;2022-08-30T11:22:24;31.50;92.00
33881;DHT22;20172;47.530;10.256;2022-08-30T11:33:01;31.10;90.70
33881;DHT22;20172;47.530;10.256;2022-08-30T11:35:33;31.10;91.20
33881;DHT22;20172;47.530;10.256;2022-08-30T11:37:59;31.20;91.00
33881;DHT22;20172;47.530;10.256;2022-08-30T11:42:51;31.40;89.50
33881;DHT22;20172;47.530;10.256;2022-08-30T11:48:04;31.80;89.30
33881;DHT22;20172;47.530;10.256;2022-08-30T11:50:37;31.90;90.00
33881;DHT22;20172;47.530;10.256;2022-08-30T12:01:12;32.20;85.00
33881;DHT22;20172;47.530;10.256;2022-08-30T12:03:35;32.30;89.20
33881;DHT22;20172;47.530;10.256;2022-08-30T12:06:02;32.80;84.60
33881;DHT22;20172;47.530;10.256;2022-08-30T12:08:49;33.00;83.50
33881;DHT22;20172;47.530;10.256;2022-08-30T12:21:21;34.20;81.00
33881;DHT22;20172;47.530;10.256;2022-08-30T12:29:12;34.60;79.40
33881;DHT22;20172;47.530;10.256;2022-08-30T12:31:49;34.50;77.80
33881;DHT22;20172;47.530;10.256;2022-08-30T12:34:26;34.40;75.10
33881;DHT22;20172;47.530;10.256;2022-08-30T12:36:54;34.50;77.50
33881;DHT22;20172;47.530;10.256;2022-08-30T12:39:22;34.60;75.10
33881;DHT22;20172;47.530;10.256;2022-08-30T12:41:47;35.00;75.20
33881;DHT22;20172;47.530;10.256;2022-08-30T12:44:14;35.20;70.50
33881;DHT22;20172;47.530;10.256;2022-08-30T12:46:41;35.10;72.40
33881;DHT22;20172;47.530;10.256;2022-08-30T12:49:07;35.20;70.70
33881;DHT22;20172;47.530;10.256;2022-08-30T12:51:39;36.30;66.90
33881;DHT22;20172;47.530;10.256;2022-08-30T12:54:27;37.30;65.60
33881;DHT22;20172;47.530;10.256;2022-08-30T12:57:01;37.70;60.90
33881;DHT22;20172;47.530;10.256;2022-08-30T12:59:47;38.40;58.90
33881;DHT22;20172;47.530;10.256;2022-08-30T13:02:15;40.00;58.20
33881;DHT22;20172;47.530;10.256;2022-08-30T13:04:41;41.40;54.70
33881;DHT22;20172;47.530;10.256;2022-08-30T13:07:07;42.20;52.20
33881;DHT22;20172;47.530;10.256;2022-08-30T13:09:40;43.00;50.70
33881;DHT22;20172;47.530;10.256;2022-08-30T13:12:08;44.40;48.70
33881;DHT22;20172;47.530;10.256;2022-08-30T13:14:38;45.50;45.80
33881;DHT22;20172;47.530;10.256;2022-08-30T13:17:08;46.60;44.20
33881;DHT22;20172;47.530;10.256;2022-08-30T13:19:35;47.20;41.90
33881;DHT22;20172;47.530;10.256;2022-08-30T13:22:02;47.00;41.50
33881;DHT22;20172;47.530;10.256;2022-08-30T13:24:28;46.30;41.90
33881;DHT22;20172;47.530;10.256;2022-08-30T13:27:03;45.80;42.50
33881;DHT22;20172;47.530;10.256;2022-08-30T13:29:30;46.10;42.10
33881;DHT22;20172;47.530;10.256;2022-08-30T13:31:56;46.90;39.80
33881;DHT22;20172;47.530;10.256;2022-08-30T13:34:22;47.50;39.20
33881;DHT22;20172;47.530;10.256;2022-08-30T13:36:54;47.90;38.60
33881;DHT22;20172;47.530;10.256;2022-08-30T13:39:20;48.00;39.20
33881;DHT22;20172;47.530;10.256;2022-08-30T13:41:45;46.70;39.70
33881;DHT22;20172;47.530;10.256;2022-08-30T13:44:11;45.20;40.30
33881;DHT22;20172;47.530;10.256;2022-08-30T13:46:40;45.00;41.20
33881;DHT22;20172;47.530;10.256;2022-08-30T13:49:07;45.60;40.80
33881;DHT22;20172;47.530;10.256;2022-08-30T13:51:33;46.70;39.40
33881;DHT22;20172;47.530;10.256;2022-08-30T13:53:58;47.30;38.80
33881;DHT22;20172;47.530;10.256;2022-08-30T13:56:25;47.50;38.30
33881;DHT22;20172;47.530;10.256;2022-08-30T13:58:52;47.70;38.10
33881;DHT22;20172;47.530;10.256;2022-08-30T14:01:17;48.10;37.50
33881;DHT22;20172;47.530;10.256;2022-08-30T14:03:43;47.90;37.30
33881;DHT22;20172;47.530;10.256;2022-08-30T14:06:08;47.40;37.00
33881;DHT22;20172;47.530;10.256;2022-08-30T14:08:34;47.20;37.70
33881;DHT22;20172;47.530;10.256;2022-08-30T14:11:01;46.80;38.00
33881;DHT22;20172;47.530;10.256;2022-08-30T14:13:27;46.20;38.00
33881;DHT22;20172;47.530;10.256;2022-08-30T14:15:56;45.00;39.80
33881;DHT22;20172;47.530;10.256;2022-08-30T14:18:22;43.20;40.60
33881;DHT22;20172;47.530;10.256;2022-08-30T14:20:47;41.80;43.80
33881;DHT22;20172;47.530;10.256;2022-08-30T14:23:13;41.30;43.90
33881;DHT22;20172;47.530;10.256;2022-08-30T14:25:39;41.00;44.20
33881;DHT22;20172;47.530;10.256;2022-08-30T14:28:04;41.60;43.00
33881;DHT22;20172;47.530;10.256;2022-08-30T14:30:30;43.00;41.40
33881;DHT22;20172;47.530;10.256;2022-08-30T14:32:56;44.00;41.00
33881;DHT22;20172;47.530;10.256;2022-08-30T14:35:21;44.60;39.70
33881;DHT22;20172;47.530;10.256;2022-08-30T14:37:47;44.30;39.70
33881;DHT22;20172;47.530;10.256;2022-08-30T14:40:13;43.40;41.00
33881;DHT22;20172;47.530;10.256;2022-08-30T14:42:39;42.90;41.40
33881;DHT22;20172;47.530;10.256;2022-08-30T14:45:05;43.20;41.30
33881;DHT22;20172;47.530;10.256;2022-08-30T14:47:30;44.00;40.70
33881;DHT22;20172;47.530;10.256;2022-08-30T14:49:56;45.00;39.60
33881;DHT22;20172;47.530;10.256;2022-08-30T14:52:25;45.30;39.10
33881;DHT22;20172;47.530;10.256;2022-08-30T14:54:51;44.50;39.70
33881;DHT22;20172;47.530;10.256;2022-08-30T14:57:16;44.00;39.60
33881;DHT22;20172;47.530;10.256;2022-08-30T14:59:42;44.00;40.60
33881;DHT22;20172;47.530;10.256;2022-08-30T15:02:08;44.00;40.40
33881;DHT22;20172;47.530;10.256;2022-08-30T15:04:33;43.80;40.90
33881;DHT22;20172;47.530;10.256;2022-08-30T15:06:59;43.80;40.10
33881;DHT22;20172;47.530;10.256;2022-08-30T15:09:24;44.00;40.40
33881;DHT22;20172;47.530;10.256;2022-08-30T15:11:51;42.30;41.90
33881;DHT22;20172;47.530;10.256;2022-08-30T15:14:17;40.60;44.00
33881;DHT22;20172;47.530;10.256;2022-08-30T15:16:43;38.10;46.90
33881;DHT22;20172;47.530;10.256;2022-08-30T15:19:09;36.20;49.00
33881;DHT22;20172;47.530;10.256;2022-08-30T15:21:36;34.90;50.90
33881;DHT22;20172;47.530;10.256;2022-08-30T15:24:03;33.80;53.00
33881;DHT22;20172;47.530;10.256;2022-08-30T15:26:29;33.30;54.30
33881;DHT22;20172;47.530;10.256;2022-08-30T15:28:54;32.70;56.00
33881;DHT22;20172;47.530;10.256;2022-08-30T15:31:21;32.00;57.70
33881;DHT22;20172;47.530;10.256;2022-08-30T15:33:47;31.70;56.70
33881;DHT22;20172;47.530;10.256;2022-08-30T15:36:13;31.60;58.20
33881;DHT22;20172;47.530;10.256;2022-08-30T15:38:38;31.70;57.60
33881;DHT22;20172;47.530;10.256;2022-08-30T15:41:05;31.80;57.90
33881;DHT22;20172;47.530;10.256;2022-08-30T15:43:32;31.60;57.90
33881;DHT22;20172;47.530;10.256;2022-08-30T15:45:58;31.20;58.70
33881;DHT22;20172;47.530;10.256;2022-08-30T15:48:35;30.90;59.60
33881;DHT22;20172;47.530;10.256;2022-08-30T15:51:00;30.60;59.60
33881;DHT22;20172;47.530;10.256;2022-08-30T15:53:26;30.20;60.30
33881;DHT22;20172;47.530;10.256;2022-08-30T15:55:51;29.70;62.10
33881;DHT22;20172;47.530;10.256;2022-08-30T15:58:17;29.30;62.30
33881;DHT22;20172;47.530;10.256;2022-08-30T16:00:42;29.10;63.40
33881;DHT22;20172;47.530;10.256;2022-08-30T16:03:09;29.10;63.50
33881;DHT22;20172;47.530;10.256;2022-08-30T16:05:35;29.10;63.60
33881;DHT22;20172;47.530;10.256;2022-08-30T16:08:00;28.90;63.90
33881;DHT22;20172;47.530;10.256;2022-08-30T16:10:26;28.60;65.00
33881;DHT22;20172;47.530;10.256;2022-08-30T16:12:54;28.30;64.90
33881;DHT22;20172;47.530;10.256;2022-08-30T16:15:20;28.10;66.40
33881;DHT22;20172;47.530;10.256;2022-08-30T16:17:45;28.00;66.80
33881;DHT22;20172;47.530;10.256;2022-08-30T16:20:11;27.90;67.10
33881;DHT22;20172;47.530;10.256;2022-08-30T16:22:36;27.70;67.90
33881;DHT22;20172;47.530;10.256;2022-08-30T16:25:03;27.60;67.30
33881;DHT22;20172;47.530;10.256;2022-08-30T16:27:29;27.50;67.70
33881;DHT22;20172;47.530;10.256;2022-08-30T16:29:54;27.40;67.90
33881;DHT22;20172;47.530;10.256;2022-08-30T16:32:20;27.30;68.60
33881;DHT22;20172;47.530;10.256;2022-08-30T16:34:46;27.20;68.70
33881;DHT22;20172;47.530;10.256;2022-08-30T16:37:11;27.20;69.30